createdAt,value
2019-03-05T00:00:42.717Z,4.40
2019-03-05T00:03:11.002Z,4.40
2019-03-05T00:05:39.271Z,4.40
2019-03-05T00:08:07.552Z,4.30
2019-03-05T00:10:35.831Z,4.40
2019-03-05T00:13:04.079Z,4.40
2019-03-05T00:15:32.317Z,4.40
2019-03-05T00:18:00.647Z,4.40
2019-03-05T00:20:28.922Z,4.30
2019-03-05T00:22:57.198Z,4.30
2019-03-05T00:25:25.567Z,4.30
2019-03-05T00:27:54.763Z,4.30
2019-03-05T00:30:26.823Z,4.30
2019-03-05T00:32:55.820Z,4.30
2019-03-05T00:35:35.863Z,4.30
2019-03-05T00:38:06.698Z,4.20
2019-03-05T00:40:46.658Z,4.10
2019-03-05T00:43:16.603Z,4.10
2019-03-05T00:45:56.516Z,4.00
2019-03-05T00:48:39.335Z,4.00
2019-03-05T00:51:11.203Z,4.00
2019-03-05T00:54:11.027Z,4.00
2019-03-05T00:57:01.558Z,3.90
2019-03-05T00:59:42.375Z,3.90
2019-03-05T01:02:17.538Z,3.90
2019-03-05T01:05:02.476Z,3.90
2019-03-05T01:07:30.859Z,3.90
2019-03-05T01:09:59.134Z,3.90
2019-03-05T01:12:27.408Z,3.90
2019-03-05T01:14:55.682Z,3.90
2019-03-05T01:17:23.950Z,3.90
2019-03-05T01:19:52.234Z,4.00
2019-03-05T01:22:20.508Z,4.00
2019-03-05T01:24:48.773Z,4.00
2019-03-05T01:27:17.051Z,4.00
2019-03-05T01:29:45.328Z,4.00
2019-03-05T01:32:29.392Z,4.10
2019-03-05T01:34:57.642Z,4.10
2019-03-05T01:37:26.029Z,4.10
2019-03-05T01:39:56.807Z,4.10
2019-03-05T01:42:26.576Z,4.30
2019-03-05T01:44:54.855Z,4.30
2019-03-05T01:47:23.131Z,4.30
2019-03-05T01:49:51.407Z,4.20
2019-03-05T01:52:19.679Z,4.10
2019-03-05T01:54:48.043Z,4.00
2019-03-05T01:57:16.314Z,3.90
2019-03-05T01:59:44.624Z,3.90
2019-03-05T02:02:12.903Z,3.80
2019-03-05T02:04:41.566Z,3.90
2019-03-05T02:07:09.942Z,3.90
2019-03-05T02:09:38.222Z,3.90
2019-03-05T02:12:06.586Z,3.90
2019-03-05T02:14:34.864Z,3.90
2019-03-05T02:17:03.139Z,3.90
2019-03-05T02:19:36.149Z,3.90
2019-03-05T02:22:05.335Z,3.90
2019-03-05T02:27:49.595Z,3.90
2019-03-05T02:33:48.369Z,3.80
2019-03-05T02:36:39.136Z,3.80
2019-03-05T02:39:13.136Z,3.80
2019-03-05T02:41:46.771Z,3.80
2019-03-05T02:44:16.941Z,3.80
2019-03-05T02:47:00.837Z,3.80
2019-03-05T02:52:29.525Z,3.70
2019-03-05T02:55:00.285Z,3.60
2019-03-05T02:57:28.073Z,3.60
2019-03-05T02:59:56.346Z,3.60
2019-03-05T03:02:24.627Z,3.70
2019-03-05T03:04:55.861Z,3.70
2019-03-05T03:07:24.243Z,3.70
2019-03-05T03:10:01.102Z,3.70
2019-03-05T03:12:30.125Z,3.70
2019-03-05T03:14:58.400Z,3.70
2019-03-05T03:17:26.776Z,3.80
2019-03-05T03:19:55.027Z,3.70
2019-03-05T03:22:24.136Z,3.70
2019-03-05T03:24:52.402Z,3.70
2019-03-05T03:27:20.667Z,3.70
2019-03-05T03:29:49.675Z,3.70
2019-03-05T03:32:17.981Z,3.70
2019-03-05T03:34:46.235Z,3.70
2019-03-05T03:37:14.508Z,3.60
2019-03-05T03:39:42.776Z,3.60
2019-03-05T03:42:11.057Z,3.60
2019-03-05T03:44:39.346Z,3.70
2019-03-05T03:47:07.675Z,3.60
2019-03-05T03:49:35.979Z,3.60
2019-03-05T03:52:04.265Z,3.50
2019-03-05T03:54:32.548Z,3.50
2019-03-05T03:57:00.915Z,3.50
2019-03-05T03:59:29.200Z,3.50
2019-03-05T04:01:57.489Z,3.50
2019-03-05T04:04:25.848Z,3.50
2019-03-05T04:06:54.123Z,3.60
2019-03-05T04:09:22.413Z,3.60
2019-03-05T04:11:50.705Z,3.50
2019-03-05T04:14:18.956Z,3.50
2019-03-05T04:16:47.216Z,3.50
2019-03-05T04:19:15.477Z,3.50
2019-03-05T04:21:44.497Z,3.50
2019-03-05T04:24:12.865Z,3.40
2019-03-05T04:26:41.111Z,3.40
2019-03-05T04:29:10.131Z,3.30
2019-03-05T04:31:38.410Z,3.30
2019-03-05T04:34:06.798Z,3.40
2019-03-05T04:36:35.180Z,3.40
2019-03-05T04:39:03.471Z,3.30
2019-03-05T04:41:31.814Z,3.30
2019-03-05T04:44:00.096Z,3.30
2019-03-05T04:46:32.871Z,3.30
2019-03-05T04:49:06.867Z,3.30
2019-03-05T04:51:37.711Z,3.20
2019-03-05T04:54:05.991Z,3.30
2019-03-05T04:56:34.392Z,3.20
2019-03-05T04:59:02.647Z,3.20
2019-03-05T05:01:30.932Z,3.20
2019-03-05T05:03:59.205Z,3.20
2019-03-05T05:06:27.457Z,3.20
2019-03-05T05:08:55.757Z,3.20
2019-03-05T05:11:24.044Z,3.20
2019-03-05T05:13:52.331Z,3.30
2019-03-05T05:16:20.779Z,3.20
2019-03-05T05:18:49.067Z,3.20
2019-03-05T05:21:17.469Z,3.20
2019-03-05T05:23:45.813Z,3.30
2019-03-05T05:26:14.092Z,3.30
2019-03-05T05:28:42.335Z,3.30
2019-03-05T05:31:11.467Z,3.20
2019-03-05T05:33:39.705Z,3.20
2019-03-05T05:36:08.819Z,3.10
2019-03-05T05:38:37.104Z,3.10
2019-03-05T05:41:05.381Z,3.20
2019-03-05T05:43:33.628Z,3.20
2019-03-05T05:46:02.658Z,3.20
2019-03-05T05:48:30.931Z,3.20
2019-03-05T05:50:59.304Z,3.20
2019-03-05T05:53:27.583Z,3.30
2019-03-05T05:55:55.881Z,3.30
2019-03-05T05:58:24.325Z,3.30
2019-03-05T06:00:53.410Z,3.30
2019-03-05T06:03:21.681Z,3.40
2019-03-05T06:05:50.077Z,3.40
2019-03-05T06:08:18.361Z,3.40
2019-03-05T06:10:46.635Z,3.40
2019-03-05T06:13:14.907Z,3.50
2019-03-05T06:15:43.194Z,3.60
2019-03-05T06:18:11.555Z,3.70
2019-03-05T06:20:42.453Z,3.70
2019-03-05T06:23:08.115Z,3.70
2019-03-05T06:25:36.376Z,3.80
2019-03-05T06:28:04.619Z,3.80
2019-03-05T06:30:34.275Z,3.90
2019-03-05T06:33:02.659Z,3.90
2019-03-05T06:35:31.007Z,3.90
2019-03-05T06:37:59.298Z,3.90
2019-03-05T06:40:27.559Z,4.00
2019-03-05T06:42:55.845Z,4.00
2019-03-05T06:45:24.224Z,4.10
2019-03-05T06:47:52.495Z,4.20
2019-03-05T06:50:23.331Z,4.20
2019-03-05T06:52:51.615Z,4.30
2019-03-05T06:55:19.884Z,4.40
2019-03-05T06:57:48.155Z,4.40
2019-03-05T07:00:32.143Z,4.50
2019-03-05T07:03:01.231Z,4.50
2019-03-05T07:05:41.440Z,4.50
2019-03-05T07:08:09.833Z,4.60
2019-03-05T07:10:38.108Z,4.60
2019-03-05T07:13:06.367Z,4.70
2019-03-05T07:15:35.679Z,4.70
2019-03-05T07:18:16.360Z,4.70
2019-03-05T07:20:46.251Z,4.60
2019-03-05T07:23:24.467Z,4.60
2019-03-05T07:25:52.732Z,4.60
2019-03-05T07:28:20.987Z,4.50
2019-03-05T07:30:49.995Z,4.40
2019-03-05T07:33:18.294Z,4.40
2019-03-05T07:35:46.560Z,4.30
2019-03-05T07:38:14.844Z,4.30
2019-03-05T07:40:43.216Z,4.30
2019-03-05T07:43:11.475Z,4.30
2019-03-05T07:45:39.759Z,4.30
2019-03-05T07:48:08.027Z,4.40
2019-03-05T07:50:36.310Z,4.60
2019-03-05T07:53:04.565Z,4.70
2019-03-05T07:55:33.589Z,5.30
2019-03-05T07:58:01.861Z,5.30
2019-03-05T08:00:30.174Z,5.60
2019-03-05T08:02:58.434Z,5.90
2019-03-05T08:05:26.707Z,6.50
2019-03-05T08:07:54.988Z,6.90
2019-03-05T08:10:26.200Z,6.80
2019-03-05T08:12:59.300Z,7.00
2019-03-05T08:15:32.233Z,7.60
2019-03-05T08:18:00.555Z,7.90
2019-03-05T08:20:28.819Z,8.30
2019-03-05T08:22:57.076Z,8.30
2019-03-05T08:25:26.089Z,7.30
2019-03-05T08:27:54.472Z,7.20
2019-03-05T08:30:22.734Z,6.80
2019-03-05T08:32:51.017Z,6.80
2019-03-05T08:35:19.399Z,7.90
2019-03-05T08:37:47.674Z,7.80
2019-03-05T08:40:16.050Z,7.40
2019-03-05T08:42:44.318Z,7.20
2019-03-05T08:45:13.360Z,7.10
2019-03-05T08:47:41.604Z,7.00
2019-03-05T08:50:12.392Z,7.20
2019-03-05T08:52:40.677Z,7.30
2019-03-05T08:55:08.989Z,7.20
2019-03-05T08:57:37.366Z,7.00
2019-03-05T09:00:07.084Z,7.00
2019-03-05T09:02:35.360Z,7.20
2019-03-05T09:05:03.635Z,7.30
2019-03-05T09:07:31.927Z,7.00
2019-03-05T09:10:00.366Z,7.00
2019-03-05T09:12:29.258Z,7.70
2019-03-05T09:14:57.544Z,7.70
2019-03-05T09:17:25.824Z,8.20
2019-03-05T09:19:54.097Z,8.20
2019-03-05T09:22:22.368Z,8.20
2019-03-05T09:24:50.649Z,8.20
2019-03-05T09:27:18.926Z,7.70
2019-03-05T09:29:47.292Z,7.50
2019-03-05T09:32:15.666Z,7.60
2019-03-05T09:34:43.964Z,7.50
2019-03-05T09:37:12.324Z,7.40
2019-03-05T09:39:40.696Z,7.40
2019-03-05T09:42:08.974Z,7.20
2019-03-05T09:44:37.251Z,7.20
2019-03-05T09:47:05.625Z,7.20
2019-03-05T09:49:33.907Z,7.20
2019-03-05T09:52:02.162Z,7.40
2019-03-05T09:54:30.444Z,7.40
2019-03-05T09:56:58.732Z,7.40
2019-03-05T09:59:27.006Z,7.50
2019-03-05T10:01:55.300Z,7.60
2019-03-05T10:04:23.668Z,8.00
2019-03-05T10:06:52.079Z,8.30
2019-03-05T10:09:21.249Z,9.00
2019-03-05T10:11:56.337Z,9.00
2019-03-05T10:14:17.991Z,9.80
2019-03-05T10:16:46.262Z,10.80
2019-03-05T10:19:14.652Z,10.80
2019-03-05T10:21:46.474Z,10.90
2019-03-05T10:24:11.295Z,10.00
2019-03-05T10:26:39.678Z,9.60
2019-03-05T10:29:07.957Z,10.50
2019-03-05T10:31:36.324Z,10.70
2019-03-05T10:34:04.695Z,10.30
2019-03-05T10:36:33.048Z,10.70
2019-03-05T10:39:01.315Z,11.30
2019-03-05T10:41:29.607Z,10.80
2019-03-05T10:43:58.699Z,11.00
2019-03-05T10:46:27.016Z,11.00
2019-03-05T10:48:55.303Z,10.80
2019-03-05T10:51:23.658Z,10.60
2019-03-05T10:53:51.940Z,10.80
2019-03-05T10:56:20.252Z,10.50
2019-03-05T10:58:48.585Z,10.10
2019-03-05T11:01:16.844Z,10.00
2019-03-05T11:03:45.111Z,9.40
2019-03-05T11:06:13.400Z,9.10
2019-03-05T11:08:41.685Z,9.20
2019-03-05T11:11:13.889Z,10.00
2019-03-05T11:13:38.437Z,11.20
2019-03-05T11:16:06.734Z,11.90
2019-03-05T11:18:35.105Z,11.90
2019-03-05T11:21:03.400Z,11.60
2019-03-05T11:23:31.766Z,11.80
2019-03-05T11:26:00.118Z,11.70
2019-03-05T11:28:28.409Z,12.50
2019-03-05T11:30:56.675Z,12.40
2019-03-05T11:33:24.971Z,12.70
2019-03-05T11:35:53.338Z,12.70
2019-03-05T11:38:21.594Z,12.30
2019-03-05T11:40:49.984Z,12.40
2019-03-05T11:43:18.265Z,11.80
2019-03-05T11:45:46.553Z,10.90
2019-03-05T11:48:14.916Z,10.70
2019-03-05T11:50:43.292Z,10.30
2019-03-05T11:53:11.670Z,10.20
2019-03-05T11:55:40.051Z,10.20
2019-03-05T11:58:08.307Z,10.40
2019-03-05T12:00:43.298Z,10.40
2019-03-05T12:03:11.845Z,10.40
2019-03-05T12:05:40.205Z,10.10
2019-03-05T12:08:08.488Z,10.30
2019-03-05T12:10:36.771Z,10.20
2019-03-05T12:13:05.145Z,10.20
2019-03-05T12:15:34.232Z,10.30
2019-03-05T12:18:02.520Z,10.50
2019-03-05T12:20:30.790Z,10.90
2019-03-05T12:22:59.086Z,10.90
2019-03-05T12:25:27.381Z,11.20
2019-03-05T12:27:56.426Z,11.80
2019-03-05T12:30:26.524Z,11.80
2019-03-05T12:32:54.815Z,11.60
2019-03-05T12:38:27.323Z,10.60
2019-03-05T12:40:55.605Z,10.60
2019-03-05T12:43:24.017Z,10.60
2019-03-05T12:45:53.059Z,10.30
2019-03-05T12:48:21.369Z,10.20
2019-03-05T12:50:49.684Z,10.10
2019-03-05T12:53:17.959Z,10.10
2019-03-05T12:55:46.238Z,10.00
2019-03-05T12:58:14.539Z,9.60
2019-03-05T13:00:42.805Z,9.60
2019-03-05T13:03:11.084Z,9.60
2019-03-05T13:05:39.370Z,9.50
2019-03-05T13:08:07.647Z,9.30
2019-03-05T13:10:37.563Z,9.20
2019-03-05T13:13:04.240Z,9.20
2019-03-05T13:15:36.168Z,9.30
2019-03-05T13:18:04.540Z,9.20
2019-03-05T13:20:32.907Z,9.10
2019-03-05T13:23:08.794Z,9.20
2019-03-05T13:25:29.941Z,9.20
2019-03-05T13:28:01.794Z,9.20
2019-03-05T13:30:27.963Z,9.10
2019-03-05T13:32:58.937Z,8.90
2019-03-05T13:35:25.495Z,8.60
2019-03-05T13:37:55.729Z,8.60
2019-03-05T13:40:26.716Z,8.70
2019-03-05T13:42:55.064Z,8.60
2019-03-05T13:45:23.308Z,8.60
2019-03-05T13:48:07.491Z,8.50
2019-03-05T13:50:57.371Z,8.40
2019-03-05T13:53:35.511Z,8.40
2019-03-05T13:56:12.011Z,8.20
2019-03-05T13:59:02.973Z,8.20
2019-03-05T14:01:32.740Z,8.10
2019-03-05T14:04:03.886Z,8.10
2019-03-05T14:09:29.435Z,8.30
2019-03-05T14:11:57.718Z,8.40
2019-03-05T14:14:26.013Z,8.50
2019-03-05T14:16:54.709Z,8.50
2019-03-05T14:19:24.521Z,8.20
2019-03-05T14:21:52.854Z,8.20
2019-03-05T14:24:21.030Z,8.20
2019-03-05T14:26:49.350Z,8.10
2019-03-05T14:29:17.783Z,8.10
2019-03-05T14:31:46.044Z,8.00
2019-03-05T14:34:14.326Z,7.90
2019-03-05T14:36:42.576Z,7.90
2019-03-05T14:39:18.514Z,7.70
2019-03-05T14:41:46.752Z,7.30
2019-03-05T14:44:15.059Z,7.00
2019-03-05T14:46:43.358Z,6.90
2019-03-05T14:49:12.471Z,6.80
2019-03-05T14:51:40.700Z,6.80
2019-03-05T14:54:09.046Z,6.70
2019-03-05T14:56:37.334Z,6.70
2019-03-05T14:59:05.635Z,6.70
2019-03-05T15:01:33.968Z,6.80
2019-03-05T15:04:02.340Z,6.80
2019-03-05T15:06:30.660Z,6.90
2019-03-05T15:08:58.905Z,6.90
2019-03-05T15:11:27.362Z,6.90
2019-03-05T15:13:55.642Z,6.90
2019-03-05T15:16:25.129Z,7.00
2019-03-05T15:18:53.542Z,6.90
2019-03-05T15:21:21.924Z,6.90
2019-03-05T15:23:50.233Z,6.80
2019-03-05T15:26:18.523Z,6.90
2019-03-05T15:28:55.719Z,6.90
2019-03-05T15:31:15.962Z,6.90
2019-03-05T15:33:44.303Z,6.80
2019-03-05T15:36:23.258Z,6.80
2019-03-05T15:38:41.686Z,6.80
2019-03-05T15:41:10.182Z,6.70
2019-03-05T15:43:38.455Z,6.70
2019-03-05T15:46:06.809Z,6.70
2019-03-05T15:48:35.103Z,6.80
2019-03-05T15:51:03.371Z,6.80
2019-03-05T15:53:31.685Z,6.80
2019-03-05T15:55:59.927Z,6.70
2019-03-05T15:58:28.203Z,6.70
2019-03-05T16:00:56.566Z,6.50
2019-03-05T16:03:24.946Z,6.50
2019-03-05T16:05:53.894Z,6.50
2019-03-05T16:08:25.181Z,6.50
2019-03-05T16:10:50.389Z,6.50
2019-03-05T16:13:19.395Z,6.40
2019-03-05T16:15:46.918Z,6.50
2019-03-05T16:18:15.010Z,6.50
2019-03-05T16:20:43.694Z,6.60
2019-03-05T16:23:11.943Z,6.60
2019-03-05T16:25:40.242Z,6.50
2019-03-05T16:28:08.643Z,6.50
2019-03-05T16:30:57.862Z,6.60
2019-03-05T16:33:32.365Z,6.60
2019-03-05T16:36:03.091Z,6.60
2019-03-05T16:38:32.119Z,6.60
2019-03-05T16:41:03.168Z,6.60
2019-03-05T16:43:32.051Z,6.70
2019-03-05T16:46:01.243Z,6.60
2019-03-05T16:48:44.395Z,6.60
2019-03-05T16:51:12.683Z,6.50
2019-03-05T16:53:57.778Z,6.40
2019-03-05T16:56:28.279Z,6.50
2019-03-05T16:59:02.256Z,6.50
2019-03-05T17:01:36.299Z,6.50
2019-03-05T17:04:20.272Z,6.50
2019-03-05T17:06:54.998Z,7.90
2019-03-05T17:09:24.003Z,7.90
2019-03-05T17:11:52.284Z,8.00
2019-03-05T17:14:20.566Z,7.30
2019-03-05T17:16:48.845Z,6.90
2019-03-05T17:19:17.980Z,6.50
2019-03-05T17:21:46.255Z,6.50
2019-03-05T17:24:14.607Z,6.50
2019-03-05T17:26:43.015Z,6.50
2019-03-05T17:29:11.380Z,6.40
2019-03-05T17:31:39.643Z,6.40
2019-03-05T17:34:07.919Z,6.30
2019-03-05T17:36:36.194Z,6.20
2019-03-05T17:39:04.496Z,6.30
2019-03-05T17:41:32.847Z,6.30
2019-03-05T17:44:01.146Z,6.20
2019-03-05T17:46:29.408Z,6.20
2019-03-05T17:48:57.772Z,6.30
2019-03-05T17:51:26.142Z,6.10
2019-03-05T17:53:54.448Z,5.90
2019-03-05T17:56:24.240Z,5.40
2019-03-05T17:58:52.624Z,5.40
2019-03-05T18:01:21.097Z,5.30
2019-03-05T18:03:49.367Z,5.00
2019-03-05T18:06:17.765Z,4.90
2019-03-05T18:08:46.040Z,4.80
2019-03-05T18:11:14.336Z,4.90
2019-03-05T18:13:42.691Z,4.80
2019-03-05T18:16:11.000Z,4.80
2019-03-05T18:18:40.091Z,5.00
2019-03-05T18:21:08.824Z,5.00
2019-03-05T18:23:37.600Z,5.00
2019-03-05T18:26:05.887Z,5.10
2019-03-05T18:28:34.168Z,5.10
2019-03-05T18:31:02.513Z,5.20
2019-03-05T18:33:31.596Z,5.30
2019-03-05T18:36:00.695Z,5.00
2019-03-05T18:38:29.227Z,5.00
2019-03-05T18:40:57.517Z,4.90
2019-03-05T18:43:35.775Z,5.00
2019-03-05T18:46:04.856Z,4.90
2019-03-05T18:48:33.741Z,4.90
2019-03-05T18:51:02.407Z,5.00
2019-03-05T18:53:30.820Z,5.00
2019-03-05T18:55:59.136Z,5.10
2019-03-05T18:58:27.499Z,5.10
2019-03-05T19:00:55.770Z,5.00
2019-03-05T19:03:24.043Z,5.00
2019-03-05T19:05:52.330Z,5.10
2019-03-05T19:08:20.613Z,5.10
2019-03-05T19:10:49.022Z,5.00
2019-03-05T19:13:17.384Z,5.10
2019-03-05T19:15:45.997Z,5.00
2019-03-05T19:18:14.359Z,5.00
2019-03-05T19:20:42.652Z,4.90
2019-03-05T19:23:11.682Z,4.80
2019-03-05T19:25:40.959Z,4.70
2019-03-05T19:28:11.346Z,4.70
2019-03-05T19:30:38.970Z,4.70
2019-03-05T19:33:07.264Z,4.60
2019-03-05T19:35:35.560Z,4.60
2019-03-05T19:38:03.831Z,4.60
2019-03-05T19:40:35.855Z,4.70
2019-03-05T19:43:04.132Z,4.70
2019-03-05T19:45:32.518Z,4.60
2019-03-05T19:48:00.776Z,4.60
2019-03-05T19:50:29.063Z,4.70
2019-03-05T19:52:57.444Z,4.70
2019-03-05T19:55:25.818Z,4.70
2019-03-05T19:58:09.147Z,4.70
2019-03-05T20:00:39.019Z,4.70
2019-03-05T20:03:08.068Z,4.70
2019-03-05T20:05:36.356Z,4.70
2019-03-05T20:08:04.788Z,4.70
2019-03-05T20:10:33.918Z,4.70
2019-03-05T20:13:02.278Z,4.60
2019-03-05T20:15:30.656Z,4.70
2019-03-05T20:17:59.295Z,4.70
2019-03-05T20:20:27.235Z,4.70
2019-03-05T20:22:55.499Z,4.70
2019-03-05T20:25:23.860Z,4.70
2019-03-05T20:27:52.240Z,4.70
2019-03-05T20:30:20.501Z,4.70
2019-03-05T20:32:48.803Z,4.80
2019-03-05T20:35:17.091Z,4.90
2019-03-05T20:37:45.447Z,4.80
2019-03-05T20:40:13.827Z,4.80
2019-03-05T20:42:42.203Z,4.80
2019-03-05T20:45:10.476Z,4.80
2019-03-05T20:47:38.743Z,4.80
2019-03-05T20:50:07.043Z,4.80
2019-03-05T20:52:35.323Z,4.90
2019-03-05T20:55:03.603Z,4.90
2019-03-05T20:57:31.896Z,4.90
2019-03-05T21:00:01.004Z,4.80
2019-03-05T21:02:30.052Z,4.80
2019-03-05T21:04:58.424Z,4.80
2019-03-05T21:07:26.800Z,4.80
2019-03-05T21:09:55.067Z,4.80
2019-03-05T21:12:23.448Z,4.90
2019-03-05T21:14:51.720Z,4.90
2019-03-05T21:17:20.203Z,5.00
2019-03-05T21:19:48.537Z,5.00
2019-03-05T21:22:17.679Z,4.80
2019-03-05T21:24:46.069Z,4.70
2019-03-05T21:27:14.364Z,4.70
2019-03-05T21:29:42.680Z,4.70
2019-03-05T21:32:10.997Z,4.80
2019-03-05T21:34:39.368Z,4.90
2019-03-05T21:37:07.656Z,4.90
2019-03-05T21:39:36.020Z,4.90
2019-03-05T21:42:04.388Z,4.90
2019-03-05T21:44:32.677Z,4.80
2019-03-05T21:47:00.968Z,5.00
2019-03-05T21:49:29.285Z,5.10
2019-03-05T21:51:57.594Z,5.10
2019-03-05T21:54:25.902Z,5.20
2019-03-05T21:56:56.906Z,5.30
2019-03-05T21:59:24.051Z,5.20
2019-03-05T22:01:52.402Z,5.20
2019-03-05T22:04:21.434Z,5.10
2019-03-05T22:06:49.739Z,5.10
2019-03-05T22:09:18.955Z,5.00
2019-03-05T22:11:47.980Z,5.00
2019-03-05T22:14:16.270Z,5.00
2019-03-05T22:16:45.386Z,4.90
2019-03-05T22:19:13.963Z,4.90
2019-03-05T22:21:42.286Z,5.00
2019-03-05T22:24:10.922Z,5.10
2019-03-05T22:26:39.223Z,5.00
2019-03-05T22:29:08.283Z,5.00
2019-03-05T22:31:36.579Z,5.00
2019-03-05T22:34:04.921Z,4.90
2019-03-05T22:36:33.229Z,5.00
2019-03-05T22:39:01.528Z,5.10
2019-03-05T22:41:30.584Z,4.90
2019-03-05T22:43:58.868Z,4.80
2019-03-05T22:46:27.233Z,5.00
2019-03-05T22:48:55.558Z,5.10
2019-03-05T22:51:25.006Z,5.10
2019-03-05T22:53:53.292Z,5.10
2019-03-05T22:56:21.673Z,5.20
2019-03-05T22:58:49.977Z,5.20
2019-03-05T23:01:19.052Z,5.00
2019-03-05T23:03:47.407Z,4.90
2019-03-05T23:06:15.675Z,4.90
2019-03-05T23:08:44.060Z,5.10
2019-03-05T23:11:12.955Z,5.20
2019-03-05T23:13:41.268Z,5.30
2019-03-05T23:16:10.311Z,5.20
2019-03-05T23:18:38.659Z,5.20
2019-03-05T23:21:17.628Z,5.00
2019-03-05T23:23:45.880Z,5.00
2019-03-05T23:26:14.245Z,5.00
2019-03-05T23:28:44.043Z,4.90
2019-03-05T23:31:14.348Z,4.80
2019-03-05T23:33:43.655Z,4.80
2019-03-05T23:36:12.807Z,4.80
2019-03-05T23:38:41.315Z,4.80
2019-03-05T23:41:11.140Z,4.70
2019-03-05T23:43:40.271Z,4.50
2019-03-05T23:46:08.619Z,4.50
2019-03-05T23:48:37.734Z,4.40
2019-03-05T23:51:06.055Z,4.40
2019-03-05T23:53:34.428Z,4.30
2019-03-05T23:56:02.778Z,4.30
2019-03-05T23:58:31.069Z,4.30
